Decoded Metar for LFMC (LE LUC in FRANCE) (IATA:N/A) | Meteo·Mobile Aviation Weather
aviador You're here:

LFMC Decoded Metar

LE LUC in FRANCE
Report Time2019-05-23 11:30:00
UTC Time2019-05-23 11:51:48
Flight Rules vfr VFR
Wind070° at 06 kt
W.Decomp.*RWY 09: 5.6 kt HW 2.2 kt LCW
RWY 13: 2.9 kt HW 5.2 kt LCW
Visibility9999 m
Phenomena:N/A
Clouds:N/A
Expected CloudBase > 4,400 ft AGL from Temp-Dew spread
CeilingNone
Temp24°C (ISA +10)
Dew Point13°C (50% RH)
AAT22.7°C
QNH1016 hPa
Density Alt1,460 ft
Elevation256 ft
Report Wrong Elevation
Raw Report
METAR LFMC 231130Z AUTO 07006KT 010V150 9999 ////// 24/13 Q1016=

Extra information for LFMC:More info

Metar Taf Metar & Taf Last 4 Metars F.Rules Stats Wind Profile Meteogram Temp Stats Airport Information Weather charts Add Link Nearby VenuesMetar ALERT Operation Metar Decoded Social comments